Řízení letového provozu České republiky
OPMET data - Ceska Republika Aktualizace: 18.01.2018 23:08:15  UTC
SIGMET / AIRMET
LKAA SIGMET 7 VALID 182300/190200 LKPW- LKAA PRAHA FIR SEV TURB FCST N OF LINE N4955 E01232 - N5037 E01438 - N5005 E01612 - N4915 E01810 SFC/FL060 MOV NE WKN=
Warning / Vystraha
VYSTRAHA C. 5 PRO LKAA PLATNOST 182010/190310 RYCHLOST VYSKOVEHO PROUDENI V LKAA V HLADINACH MEZI FL180/FL450 PRESAHUJE HODNOTU 80KT, SMER W-NW. V HLADINACH FL050 A FL100 PRESAHUJE HODNOTU 50KT, SMER W-NW. VYSKOVE PROUDENI BUDE OD ZAPADU SLABNOUT.=
 
METAR / SPECI
METAR LKCV 182300Z 26014KT CAVOK 04/M02 Q0999 NOSIG=
METAR LKKB 182300Z 24012KT 9999 FEW045 BKN050 04/M03 Q1000=
METAR LKKU NIL
METAR LKKV 182300Z 25010KT 210V290 9999 BKN028 01/M03 Q1000 R29/////// RMK REG QNH 0993=
METAR LKLN 182300Z AUTO 29006KT 240V350 9999 FEW041 SCT140 OVC170 03/M02 Q1002=
METAR LKMT 182300Z 24020KT 9999 FEW046 04/M03 Q0997 NOSIG RMK REG QNH 0993=
METAR LKNA 182300Z 28018KT CAVOK 03/M03 Q1000=
METAR LKPD 182300Z 27017KT CAVOK 05/M02 Q0999=
METAR LKPR 182300Z 24013KT 9999 FEW040 02/M03 Q1000 NOSIG RMK REG QNH 0993=
METAR LKTB 182300Z 28014KT CAVOK 04/M02 Q1000 R27/29//95 NOSIG RMK REG QNH 0993=
METAR LKVO NIL
TAF
TAF LKCV 181700Z 1818/1918 25022G34KT 9999 SCT030      TEMPO 1818/1900 25026G42KT      BECMG 1903/1905 26012KT      TEMPO 1911/1918 6000 SNRA BKN020=
TAF LKKB 181700Z 1818/1918 24022G40KT 9999 BKN040      TEMPO 1818/1900 2000 RASN OVC010      BECMG 1900/1902 25018KT      TEMPO 1900/1918 26018G28KT 4000 SNRA BKN010=
TAF LKKU NIL
TAF LKKV 181700Z 1818/2000 24016KT 9999 BKN017      PROB40 TEMPO 1818/1821 27018G40KT      TEMPO 1818/1919 1200 SNRA BKN004      PROB30 TEMPO 1909/1917 SCT004TCU      BECMG 1900/1902 27010KT=
TAF LKLN NIL
TAF LKMT 181700Z 1818/2000 20012KT 9999 BKN020      TEMPO 1818/1906 24016G30KT      PROB40 TEMPO 1818/1902 27020G40KT      TEMPO 1818/1820 3000 SNRA FEW004TCU BKN007      BECMG 1906/1908 24010KT      TEMPO 1821/1918 5000 SHSNRA BKN009=
TAF LKNA 181700Z 1818/1918 19014G24KT 9999 BKN030      TEMPO 1818/1822 8000 RA BKN020      BECMG 1819/1821 27012KT      TEMPO 1819/1904 27012G24KT      TEMPO 1912/1918 7000 SNRA BKN015=
TAF LKPD 181700Z 1818/1918 27020KT 9999 BKN030      TEMPO 1818/1900 27026G40KT      BECMG 1900/1902 27010KT      TEMPO 1902/1906 27016G26KT      TEMPO 1912/1918 6000 RASN BKN020 OVC040      BECMG 1912/1914 26004KT=
TAF LKPR 181700Z 1818/2000 24018KT 9999 SCT020      PROB40 TEMPO 1818/1820 27028G40KT      BECMG 1900/1901 27014KT      TEMPO 1901/2000 27016G26KT      TEMPO 1818/2000 4000 SHSNRA BKN009      PROB30 TEMPO 1909/1917 SCT007TCU=
TAF LKTB 181700Z 1818/2000 20010KT 9999 SCT020      TEMPO 1818/1902 27016G26KT      BECMG 1902/1904 27006KT      TEMPO 1818/1918 6000 SHSNRA BKN009=
TAF LKVO NIL